This is the latest recevied weather packets stored in our database for station/object KB9HUO. If no packets are shown the sender has not sent any weather packets the latest 10 day(s).
| Time | Temp. | Humidity | Pressure | Rain* | Wind** | Luminosity | Snow |
|---|---|---|---|---|---|---|---|
| 1777971410 | 16.11° C | 79% | 1011.1 hPa | 4.32 mm | - | 0 W/m² | - |
| 1777971109 | 17.78° C | 72% | 1011.2 hPa | 1.27 mm | - | 0 W/m² | - |
| 1777970806 | 18.33° C | 66% | 1010.5 hPa | 0 mm | - | 0 W/m² | - |
| 1777970504 | 18.89° C | 61% | 1011.1 hPa | 0 mm | - | 0 W/m² | - |
| 1777970201 | 19.44° C | 59% | 1010.2 hPa | 0 mm | - | 0 W/m² | - |
| 1777969898 | 19.44° C | 58% | 1009.7 hPa | 0 mm | - | 0 W/m² | - |
| 1777969594 | 19.44° C | 58% | 1008.5 hPa | 0 mm | - | 0 W/m² | - |
| 1777969291 | 19.44° C | 58% | 1008 hPa | 0 mm | - | 0 W/m² | - |
| 1777968987 | 19.44° C | 58% | 1008 hPa | 0 mm | - | 0 W/m² | - |
| 1777968685 | 19.44° C | 58% | 1007.8 hPa | 0 mm | - | 0 W/m² | - |
| 1777968381 | 19.44° C | 58% | 1007.6 hPa | 0 mm | - | 0 W/m² | - |
| 1777968077 | 19.44° C | 58% | 1007.6 hPa | 0 mm | - | 0 W/m² | - |
| 1777967773 | 19.44° C | 58% | 1007.4 hPa | 0 mm | - | 0 W/m² | - |
| 1777967470 | 19.44° C | 57% | 1007.3 hPa | 0 mm | - | 0 W/m² | - |
| 1777967167 | 19.44° C | 57% | 1007.4 hPa | 0 mm | - | 0 W/m² | - |
| 1777966864 | 19.44° C | 57% | 1007.5 hPa | 0 mm | - | 0 W/m² | - |
| 1777966562 | 19.44° C | 57% | 1007.3 hPa | 0 mm | - | 0 W/m² | - |
| 1777966260 | 19.44° C | 57% | 1007.2 hPa | 0 mm | - | 0 W/m² | - |
| 1777965955 | 19.44° C | 57% | 1007.4 hPa | 0 mm | - | 0 W/m² | - |
| 1777965652 | 19.44° C | 56% | 1007.6 hPa | 0 mm | - | 0 W/m² | - |
| 1777965347 | 19.44° C | 56% | 1007.6 hPa | 0 mm | - | 0 W/m² | - |
| 1777965048 | 20° C | 56% | 1007.4 hPa | 0 mm | - | 0 W/m² | - |
| 1777964743 | 20° C | 56% | 1007.6 hPa | 0 mm | - | 0 W/m² | - |
| 1777964439 | 20° C | 55% | 1007.5 hPa | 0 mm | - | 0 W/m² | - |
| 1777964135 | 20° C | 55% | 1007.6 hPa | 0 mm | - | 0 W/m² | - |
* Rain latest hour (hover to see other rain measurements)
** Current wind speed in m/s (hover to see current wind gust speed)